createdAt,value
2023-05-08T00:00:36.679Z,87.63
2023-05-08T00:02:09.929Z,87.93
2023-05-08T00:03:43.403Z,87.40
2023-05-08T00:05:16.959Z,87.34
2023-05-08T00:06:51.927Z,87.17
2023-05-08T00:08:25.493Z,87.54
2023-05-08T00:09:58.662Z,87.97
2023-05-08T00:11:32.027Z,87.45
2023-05-08T00:13:05.229Z,88.06
2023-05-08T00:14:38.768Z,87.13
2023-05-08T00:16:13.070Z,87.68
2023-05-08T00:17:46.546Z,88.71
2023-05-08T00:19:20.195Z,88.68
2023-05-08T00:20:53.582Z,88.47
2023-05-08T00:22:26.926Z,88.33
2023-05-08T00:24:00.149Z,87.79
2023-05-08T00:25:33.607Z,88.00
2023-05-08T00:27:08.691Z,88.52
2023-05-08T00:28:44.469Z,88.26
2023-05-08T00:30:17.905Z,87.94
2023-05-08T00:31:51.210Z,88.72
2023-05-08T00:33:24.638Z,89.14
2023-05-08T00:34:57.847Z,90.00
2023-05-08T00:36:31.049Z,89.91
2023-05-08T00:38:04.086Z,89.58
2023-05-08T00:39:36.986Z,88.55
2023-05-08T00:41:10.467Z,89.72
2023-05-08T00:42:43.760Z,89.58
2023-05-08T00:44:17.619Z,89.08
2023-05-08T00:45:55.676Z,89.66
2023-05-08T00:47:29.886Z,88.94
2023-05-08T00:49:05.046Z,89.25
2023-05-08T00:50:38.240Z,89.28
2023-05-08T00:52:11.808Z,88.54
2023-05-08T00:53:45.867Z,87.88
2023-05-08T00:55:20.290Z,88.01
2023-05-08T00:56:57.957Z,87.87
2023-05-08T00:58:34.084Z,87.09
2023-05-08T01:00:08.281Z,88.11
2023-05-08T01:01:41.974Z,88.69
2023-05-08T01:03:15.978Z,89.00
2023-05-08T01:04:49.825Z,89.12
2023-05-08T01:06:23.067Z,88.73
2023-05-08T01:07:56.610Z,88.79
2023-05-08T01:09:29.945Z,89.09
2023-05-08T01:11:28.364Z,88.67
2023-05-08T01:13:38.886Z,87.29
2023-05-08T01:15:15.116Z,88.13
2023-05-08T01:17:06.358Z,87.04
2023-05-08T01:18:46.560Z,85.89
2023-05-08T01:20:52.650Z,85.92
2023-05-08T01:22:25.792Z,84.30
2023-05-08T01:24:10.902Z,83.36
2023-05-08T01:26:24.045Z,82.91
2023-05-08T01:28:09.128Z,84.06
2023-05-08T01:29:48.449Z,85.46
2023-05-08T01:31:58.331Z,87.17
2023-05-08T01:33:38.008Z,86.45
2023-05-08T01:35:24.503Z,85.86
2023-05-08T01:37:12.003Z,85.44
2023-05-08T01:39:11.818Z,84.65
2023-05-08T01:40:55.104Z,83.82
2023-05-08T01:42:39.018Z,81.53
2023-05-08T01:44:20.195Z,81.56
2023-05-08T01:45:56.990Z,81.45
2023-05-08T01:47:33.681Z,80.31
2023-05-08T01:49:22.967Z,79.78
2023-05-08T01:51:02.848Z,79.98
2023-05-08T01:52:49.152Z,80.32
2023-05-08T01:54:27.707Z,78.47
2023-05-08T01:56:08.986Z,75.74
2023-05-08T01:57:48.109Z,74.69
2023-05-08T01:59:24.085Z,73.90
2023-05-08T02:00:58.704Z,73.37
2023-05-08T02:02:34.989Z,72.81
2023-05-08T02:04:12.506Z,73.93
2023-05-08T02:05:49.728Z,71.21
2023-05-08T02:07:25.355Z,71.39
2023-05-08T02:09:01.335Z,70.27
2023-05-08T02:10:37.687Z,69.74
2023-05-08T02:12:12.623Z,68.95
2023-05-08T02:13:49.264Z,68.90
2023-05-08T02:15:25.497Z,67.92
2023-05-08T02:17:00.589Z,67.62
2023-05-08T02:18:35.844Z,67.42
2023-05-08T02:20:15.351Z,66.33
2023-05-08T02:21:53.611Z,65.80
2023-05-08T02:23:28.241Z,65.56
2023-05-08T02:25:02.211Z,65.35
2023-05-08T02:26:38.848Z,64.94
2023-05-08T02:28:12.596Z,64.94
2023-05-08T02:29:48.825Z,63.58
2023-05-08T02:31:22.881Z,62.81
2023-05-08T02:33:00.832Z,61.90
2023-05-08T02:34:35.776Z,62.34
2023-05-08T02:36:11.222Z,61.77
2023-05-08T02:37:49.375Z,60.60
2023-05-08T02:39:27.071Z,60.56
2023-05-08T02:41:05.905Z,62.06
2023-05-08T02:42:40.397Z,58.87
2023-05-08T02:44:14.261Z,60.71
2023-05-08T02:45:53.169Z,62.04
2023-05-08T02:47:34.747Z,61.84
2023-05-08T02:49:35.729Z,61.01
2023-05-08T02:51:22.154Z,60.35
2023-05-08T02:53:04.255Z,58.74
2023-05-08T02:54:51.840Z,57.99
2023-05-08T02:56:38.277Z,56.70
2023-05-08T02:58:46.532Z,55.87
2023-05-08T03:00:29.621Z,55.98
2023-05-08T03:02:17.500Z,54.84
2023-05-08T03:04:00.666Z,53.59
2023-05-08T03:05:37.472Z,52.55
2023-05-08T03:07:11.737Z,51.77
2023-05-08T03:08:46.195Z,49.76
2023-05-08T03:10:22.507Z,49.72
2023-05-08T03:12:10.107Z,49.11
2023-05-08T03:13:47.485Z,48.68
2023-05-08T03:15:32.408Z,48.15
2023-05-08T03:17:09.190Z,48.05
2023-05-08T03:18:55.828Z,47.64
2023-05-08T03:20:35.927Z,47.89
2023-05-08T03:22:10.829Z,46.01
2023-05-08T03:23:45.143Z,46.84
2023-05-08T03:25:20.255Z,47.39
2023-05-08T03:26:55.044Z,47.62
2023-05-08T03:28:29.615Z,46.80
2023-05-08T03:30:06.636Z,47.87
2023-05-08T03:31:44.502Z,44.19
2023-05-08T03:33:18.784Z,44.56
2023-05-08T03:34:53.655Z,45.24
2023-05-08T03:36:27.530Z,44.56
2023-05-08T03:38:01.347Z,45.24
2023-05-08T03:39:34.891Z,41.51
2023-05-08T03:41:08.552Z,41.92
2023-05-08T03:42:43.058Z,41.79
2023-05-08T03:44:18.353Z,41.87
2023-05-08T03:45:52.118Z,39.59
2023-05-08T03:47:28.311Z,39.99
2023-05-08T03:49:05.221Z,40.50
2023-05-08T03:50:39.482Z,39.81
2023-05-08T03:52:16.787Z,40.58
2023-05-08T03:53:49.952Z,40.84
2023-05-08T03:55:24.322Z,40.69
2023-05-08T03:56:58.163Z,40.60
2023-05-08T03:58:57.101Z,40.58
2023-05-08T04:00:44.965Z,39.37
2023-05-08T04:02:53.072Z,38.47
2023-05-08T04:04:44.543Z,39.31
2023-05-08T04:06:42.149Z,39.35
2023-05-08T04:08:29.679Z,38.98
2023-05-08T04:10:06.031Z,38.25
2023-05-08T04:11:44.914Z,37.64
2023-05-08T04:13:26.597Z,37.14
2023-05-08T04:15:07.047Z,36.89
2023-05-08T04:16:49.217Z,37.22
2023-05-08T04:18:30.451Z,37.07
2023-05-08T04:20:12.735Z,37.32
2023-05-08T04:21:48.272Z,37.07
2023-05-08T04:23:23.460Z,37.45
2023-05-08T04:25:02.031Z,37.80
2023-05-08T04:26:36.760Z,37.26
2023-05-08T04:28:12.018Z,37.06
2023-05-08T04:29:45.546Z,37.34
2023-05-08T04:31:20.160Z,37.53
2023-05-08T04:32:54.179Z,37.33
2023-05-08T04:34:29.338Z,36.50
2023-05-08T04:36:03.820Z,36.18
2023-05-08T04:37:38.026Z,36.35
2023-05-08T04:39:11.277Z,36.41
2023-05-08T04:40:44.356Z,36.34
2023-05-08T04:42:18.409Z,36.11
2023-05-08T04:43:51.406Z,35.63
2023-05-08T04:45:25.277Z,35.78
2023-05-08T04:46:59.420Z,35.75
2023-05-08T04:48:34.124Z,35.72
2023-05-08T04:50:07.977Z,35.47
2023-05-08T04:51:42.074Z,34.87
2023-05-08T04:53:15.392Z,34.23
2023-05-08T04:54:48.768Z,34.08
2023-05-08T04:56:22.563Z,33.60
2023-05-08T04:57:56.058Z,33.37
2023-05-08T04:59:30.210Z,33.47
2023-05-08T05:01:04.819Z,32.74
2023-05-08T05:02:39.255Z,33.08
2023-05-08T05:04:12.672Z,33.24
2023-05-08T05:05:46.376Z,33.23
2023-05-08T05:07:20.110Z,33.37
2023-05-08T05:08:53.374Z,33.45
2023-05-08T05:10:27.685Z,32.66
2023-05-08T05:12:01.033Z,32.07
2023-05-08T05:13:34.343Z,32.23
2023-05-08T05:15:08.080Z,31.85
2023-05-08T05:16:42.750Z,31.58
2023-05-08T05:18:16.023Z,32.14
2023-05-08T05:19:51.415Z,32.03
2023-05-08T05:21:26.387Z,32.03
2023-05-08T05:23:00.065Z,32.18
2023-05-08T05:24:33.681Z,32.04
2023-05-08T05:26:06.870Z,31.54
2023-05-08T05:27:40.172Z,31.19
2023-05-08T05:29:14.669Z,30.25
2023-05-08T05:30:48.919Z,29.81
2023-05-08T05:32:22.049Z,30.27
2023-05-08T05:33:55.248Z,29.93
2023-05-08T05:35:28.817Z,30.29
2023-05-08T05:37:03.090Z,30.25
2023-05-08T05:38:35.960Z,30.27
2023-05-08T05:40:09.758Z,29.94
2023-05-08T05:41:44.773Z,29.23
2023-05-08T05:43:18.587Z,29.58
2023-05-08T05:44:51.984Z,29.01
2023-05-08T05:46:31.504Z,29.16
2023-05-08T05:48:07.674Z,29.45
2023-05-08T05:49:43.328Z,28.77
2023-05-08T05:51:17.054Z,29.01
2023-05-08T05:52:50.494Z,29.75
2023-05-08T05:54:24.481Z,30.40
2023-05-08T05:55:57.690Z,30.94
2023-05-08T05:57:31.206Z,31.43
2023-05-08T05:59:04.655Z,31.35
2023-05-08T06:00:38.351Z,30.98
2023-05-08T06:02:15.098Z,30.57
2023-05-08T06:03:48.316Z,30.48
2023-05-08T06:05:21.578Z,30.45
2023-05-08T06:06:55.491Z,30.54
2023-05-08T06:08:29.201Z,29.67
2023-05-08T06:10:02.926Z,29.36
2023-05-08T06:11:36.822Z,30.18
2023-05-08T06:13:10.424Z,29.55
2023-05-08T06:14:43.629Z,29.53
2023-05-08T06:16:16.787Z,30.08
2023-05-08T06:17:51.137Z,30.45
2023-05-08T06:19:25.104Z,30.52
2023-05-08T06:21:01.647Z,31.04
2023-05-08T06:22:35.258Z,31.51
2023-05-08T06:24:08.831Z,31.64
2023-05-08T06:25:42.068Z,31.55
2023-05-08T06:27:15.370Z,31.09
2023-05-08T06:28:51.216Z,31.64
2023-05-08T06:30:24.316Z,30.90
2023-05-08T06:31:57.849Z,30.96
2023-05-08T06:33:31.075Z,30.86
2023-05-08T06:35:04.530Z,30.94
2023-05-08T06:36:38.544Z,31.18
2023-05-08T06:38:12.044Z,31.76
2023-05-08T06:39:45.348Z,31.60
2023-05-08T06:41:18.556Z,31.61
2023-05-08T06:42:51.665Z,31.53
2023-05-08T06:44:24.576Z,31.13
2023-05-08T06:45:57.711Z,31.37
2023-05-08T06:47:31.283Z,30.95
2023-05-08T06:49:04.380Z,31.52
2023-05-08T06:50:41.336Z,31.25
2023-05-08T06:52:14.469Z,31.43
2023-05-08T06:53:47.879Z,31.52
2023-05-08T06:55:21.236Z,32.21
2023-05-08T06:56:54.886Z,31.60
2023-05-08T06:58:28.128Z,32.02
2023-05-08T07:00:01.559Z,30.70
2023-05-08T07:01:36.352Z,30.54
2023-05-08T07:03:09.810Z,30.49
2023-05-08T07:04:44.933Z,30.61
2023-05-08T07:06:18.237Z,30.45
2023-05-08T07:07:54.332Z,30.20
2023-05-08T07:09:27.615Z,30.29
2023-05-08T07:11:00.804Z,30.97
2023-05-08T07:12:34.177Z,29.83
2023-05-08T07:14:08.568Z,29.71
2023-05-08T07:15:41.658Z,30.06
2023-05-08T07:17:14.992Z,30.15
2023-05-08T07:18:48.478Z,30.21
2023-05-08T07:20:22.049Z,30.30
2023-05-08T07:21:55.468Z,30.34
2023-05-08T07:23:28.701Z,30.59
2023-05-08T07:25:01.772Z,30.69
2023-05-08T07:26:34.929Z,30.58
2023-05-08T07:28:08.542Z,30.28
2023-05-08T07:29:42.990Z,29.95
2023-05-08T07:31:17.055Z,31.12
2023-05-08T07:32:50.205Z,30.16
2023-05-08T07:34:23.637Z,29.81
2023-05-08T07:35:56.645Z,29.58
2023-05-08T07:37:30.168Z,30.06
2023-05-08T07:39:03.270Z,30.16
2023-05-08T07:40:36.495Z,31.22
2023-05-08T07:42:09.701Z,30.65
2023-05-08T07:43:44.399Z,30.27
2023-05-08T07:45:17.605Z,29.72
2023-05-08T07:46:51.747Z,30.53
2023-05-08T07:48:25.210Z,30.44
2023-05-08T07:49:58.525Z,30.41
2023-05-08T07:51:32.808Z,30.01
2023-05-08T07:53:07.130Z,30.57
2023-05-08T07:54:40.390Z,30.17
2023-05-08T07:56:13.795Z,30.05
2023-05-08T07:57:46.989Z,30.03
2023-05-08T07:59:20.399Z,30.02
2023-05-08T08:00:54.092Z,30.21
2023-05-08T08:02:27.424Z,29.94
2023-05-08T08:04:01.060Z,30.02
2023-05-08T08:05:34.434Z,30.75
2023-05-08T08:07:07.579Z,30.00
2023-05-08T08:08:41.454Z,30.39
2023-05-08T08:10:14.727Z,30.29
2023-05-08T08:11:48.263Z,30.40
2023-05-08T08:13:21.688Z,30.80
2023-05-08T08:14:55.301Z,29.95
2023-05-08T08:16:28.558Z,30.29
2023-05-08T08:18:02.629Z,30.33
2023-05-08T08:19:36.276Z,30.75
2023-05-08T08:21:09.620Z,30.86
2023-05-08T08:22:42.758Z,30.28
2023-05-08T08:24:16.505Z,30.53
2023-05-08T08:25:49.647Z,30.98
2023-05-08T08:27:23.279Z,30.79
2023-05-08T08:28:56.880Z,30.77
2023-05-08T08:30:30.548Z,31.13
2023-05-08T08:32:04.017Z,31.44
2023-05-08T08:33:37.715Z,31.13
2023-05-08T08:35:11.529Z,30.92
2023-05-08T08:36:44.995Z,30.66
2023-05-08T08:38:18.221Z,30.88
2023-05-08T08:39:51.530Z,30.86
2023-05-08T08:41:24.817Z,30.64
2023-05-08T08:42:58.361Z,30.68
2023-05-08T08:44:31.642Z,30.41
2023-05-08T08:46:14.960Z,30.34
2023-05-08T08:47:49.299Z,30.42
2023-05-08T08:49:31.990Z,30.20
2023-05-08T08:51:14.031Z,30.38
2023-05-08T08:53:12.065Z,30.74
2023-05-08T08:54:47.841Z,30.65
2023-05-08T08:56:24.025Z,30.44
2023-05-08T08:58:09.203Z,31.05
2023-05-08T08:59:44.734Z,31.09
2023-05-08T09:01:20.058Z,30.96
2023-05-08T09:02:53.581Z,30.60
2023-05-08T09:04:28.030Z,30.58
2023-05-08T09:06:03.898Z,30.33
2023-05-08T09:07:39.156Z,29.80
2023-05-08T09:09:13.932Z,30.16
2023-05-08T09:10:47.417Z,29.56
2023-05-08T09:12:20.645Z,30.25
2023-05-08T09:13:55.349Z,30.24
2023-05-08T09:15:28.875Z,30.31
2023-05-08T09:17:02.854Z,30.32
2023-05-08T09:18:36.732Z,29.81
2023-05-08T09:20:11.436Z,29.69
2023-05-08T09:21:45.815Z,29.63
2023-05-08T09:23:20.210Z,29.46
2023-05-08T09:24:58.858Z,30.08
2023-05-08T09:26:37.728Z,29.68
2023-05-08T09:28:16.794Z,30.03
2023-05-08T09:30:02.447Z,29.88
2023-05-08T09:31:43.158Z,29.91
2023-05-08T09:33:16.775Z,30.21
2023-05-08T09:34:54.072Z,30.80
2023-05-08T09:36:28.933Z,30.84
2023-05-08T09:38:02.458Z,30.39
2023-05-08T09:39:35.839Z,30.66
2023-05-08T09:41:16.739Z,30.24
2023-05-08T09:42:51.307Z,30.15
2023-05-08T09:44:24.505Z,30.19
2023-05-08T09:45:57.718Z,29.78
2023-05-08T09:47:31.570Z,29.76
2023-05-08T09:49:05.021Z,29.97
2023-05-08T09:50:39.726Z,30.00
2023-05-08T09:52:16.447Z,29.53
2023-05-08T09:53:57.596Z,29.14
2023-05-08T09:55:47.658Z,29.40
2023-05-08T09:57:20.890Z,29.23
2023-05-08T09:58:54.106Z,29.35
2023-05-08T10:00:29.403Z,29.20
2023-05-08T10:02:11.439Z,28.76
2023-05-08T10:03:50.875Z,29.32
2023-05-08T10:05:36.033Z,29.85
2023-05-08T10:07:09.556Z,30.23
2023-05-08T10:08:43.021Z,30.26
2023-05-08T10:10:31.996Z,30.40
2023-05-08T10:12:06.821Z,29.64
2023-05-08T10:13:40.501Z,29.13
2023-05-08T10:15:13.798Z,29.38
2023-05-08T10:16:53.092Z,29.97
2023-05-08T10:18:30.281Z,29.83
2023-05-08T10:20:07.903Z,29.94
2023-05-08T10:21:45.030Z,29.80
2023-05-08T10:23:19.455Z,29.81
2023-05-08T10:24:58.180Z,29.79
2023-05-08T10:26:32.707Z,29.67
2023-05-08T10:28:33.966Z,30.47
2023-05-08T10:30:08.906Z,29.42
2023-05-08T10:31:46.427Z,30.09
2023-05-08T10:33:21.968Z,30.63
2023-05-08T10:35:00.616Z,30.47
2023-05-08T10:36:36.244Z,30.29
2023-05-08T10:38:10.344Z,29.89
2023-05-08T10:39:45.150Z,29.53
2023-05-08T10:41:20.289Z,29.72
2023-05-08T10:42:53.491Z,29.24
2023-05-08T10:44:29.807Z,29.34
2023-05-08T10:46:09.749Z,29.20
2023-05-08T10:47:56.291Z,28.88
2023-05-08T10:49:41.783Z,29.45
2023-05-08T10:51:43.708Z,28.60
2023-05-08T10:53:23.417Z,28.50
2023-05-08T10:55:04.660Z,28.87
2023-05-08T10:56:39.485Z,29.19
2023-05-08T10:58:29.908Z,28.90
2023-05-08T11:00:03.477Z,28.86
2023-05-08T11:01:39.470Z,29.13
2023-05-08T11:03:23.575Z,29.33
2023-05-08T11:05:19.429Z,29.51
2023-05-08T11:06:56.245Z,29.40
2023-05-08T11:08:30.961Z,28.84
2023-05-08T11:10:13.479Z,28.86
2023-05-08T11:11:57.444Z,29.31
2023-05-08T11:13:34.934Z,29.24
2023-05-08T11:15:09.784Z,29.64
2023-05-08T11:16:55.562Z,28.65
2023-05-08T11:18:41.794Z,28.97
2023-05-08T11:20:24.983Z,29.22
2023-05-08T11:22:14.038Z,29.40
2023-05-08T11:23:57.576Z,29.13
2023-05-08T11:25:49.021Z,29.39
2023-05-08T11:27:51.316Z,29.14
2023-05-08T11:29:24.832Z,29.26
2023-05-08T11:31:02.736Z,29.15
2023-05-08T11:33:05.631Z,28.98
2023-05-08T11:34:39.290Z,29.21
2023-05-08T11:36:14.361Z,29.23
2023-05-08T11:38:19.094Z,29.43
2023-05-08T11:39:52.611Z,29.59
2023-05-08T11:41:26.170Z,29.32
2023-05-08T11:43:00.135Z,28.92
2023-05-08T11:44:33.569Z,28.60
2023-05-08T11:46:14.173Z,28.96
2023-05-08T11:47:47.299Z,28.96
2023-05-08T11:49:26.857Z,29.00
2023-05-08T11:51:03.664Z,28.99
2023-05-08T11:52:38.730Z,28.56
2023-05-08T11:54:14.674Z,28.47
2023-05-08T11:55:52.869Z,28.66
2023-05-08T11:57:25.957Z,28.56
2023-05-08T11:59:04.189Z,28.80
2023-05-08T12:00:41.565Z,28.87
2023-05-08T12:02:15.128Z,29.09
2023-05-08T12:03:48.645Z,29.09
2023-05-08T12:05:28.258Z,29.36
2023-05-08T12:07:01.494Z,29.09
2023-05-08T12:08:39.911Z,29.14
2023-05-08T12:10:17.318Z,29.13
2023-05-08T12:11:58.360Z,29.24
2023-05-08T12:13:31.692Z,29.10
2023-05-08T12:15:13.032Z,29.22
2023-05-08T12:16:46.362Z,29.54
2023-05-08T12:18:20.015Z,29.37
2023-05-08T12:19:56.994Z,29.47
2023-05-08T12:21:30.516Z,29.49
2023-05-08T12:23:04.526Z,29.52
2023-05-08T12:24:39.445Z,29.54
2023-05-08T12:26:13.264Z,29.38
2023-05-08T12:27:47.117Z,29.41
2023-05-08T12:29:20.567Z,29.41
2023-05-08T12:30:54.575Z,29.32
2023-05-08T12:32:29.236Z,29.56
2023-05-08T12:34:06.880Z,29.53
2023-05-08T12:35:41.056Z,29.68
2023-05-08T12:37:24.369Z,29.58
2023-05-08T12:39:16.795Z,29.62
2023-05-08T12:40:53.224Z,29.40
2023-05-08T12:42:51.541Z,29.61
2023-05-08T12:44:26.680Z,29.45
2023-05-08T12:46:00.067Z,30.00
2023-05-08T12:47:33.405Z,29.43
2023-05-08T12:49:11.129Z,29.85
2023-05-08T12:50:46.358Z,29.72
2023-05-08T12:52:19.675Z,29.59
2023-05-08T12:53:53.158Z,29.61
2023-05-08T12:55:28.145Z,29.54
2023-05-08T12:57:01.598Z,29.38
2023-05-08T12:58:35.803Z,29.22
2023-05-08T13:00:09.818Z,29.07
2023-05-08T13:01:43.255Z,29.31
2023-05-08T13:03:30.101Z,28.98
2023-05-08T13:05:05.226Z,29.09
2023-05-08T13:06:38.626Z,29.13
2023-05-08T13:08:12.045Z,29.21
2023-05-08T13:10:00.360Z,29.31
2023-05-08T13:11:34.700Z,29.79
2023-05-08T13:13:08.144Z,29.65
2023-05-08T13:14:41.509Z,29.91
2023-05-08T13:16:14.710Z,30.01
2023-05-08T13:17:47.941Z,30.12
2023-05-08T13:19:21.178Z,30.05
2023-05-08T13:20:56.573Z,30.08
2023-05-08T13:22:30.717Z,30.08
2023-05-08T13:24:04.044Z,30.38
2023-05-08T13:25:39.001Z,30.48
2023-05-08T13:27:13.768Z,30.38
2023-05-08T13:28:46.745Z,30.73
2023-05-08T13:30:22.509Z,30.47
2023-05-08T13:31:55.686Z,30.35
2023-05-08T13:33:29.582Z,30.30
2023-05-08T13:35:02.829Z,30.33
2023-05-08T13:36:36.135Z,30.35
2023-05-08T13:38:09.635Z,30.48
2023-05-08T13:39:42.797Z,30.44
2023-05-08T13:41:16.036Z,30.61
2023-05-08T13:42:51.103Z,30.72
2023-05-08T13:44:24.475Z,30.68
2023-05-08T13:45:58.272Z,30.78
2023-05-08T13:47:31.598Z,30.76
2023-05-08T13:49:04.728Z,31.04
2023-05-08T13:50:38.163Z,30.57
2023-05-08T13:52:11.377Z,30.80
2023-05-08T13:53:44.673Z,30.87
2023-05-08T13:55:21.224Z,31.08
2023-05-08T13:56:54.523Z,30.89
2023-05-08T13:58:28.434Z,30.93
2023-05-08T14:00:02.273Z,31.07
2023-05-08T14:01:35.659Z,31.04
2023-05-08T14:03:08.998Z,31.13
2023-05-08T14:04:42.790Z,31.19
2023-05-08T14:06:16.030Z,31.07
2023-05-08T14:07:49.119Z,31.10
2023-05-08T14:09:22.442Z,31.27
2023-05-08T14:10:55.621Z,31.36
2023-05-08T14:12:28.681Z,31.24
2023-05-08T14:14:01.912Z,31.54
2023-05-08T14:15:37.380Z,31.40
2023-05-08T14:17:11.870Z,31.49
2023-05-08T14:18:44.854Z,31.62
2023-05-08T14:20:18.047Z,31.61
2023-05-08T14:21:51.812Z,31.61
2023-05-08T14:23:25.357Z,31.79
2023-05-08T14:24:58.210Z,31.98
2023-05-08T14:26:31.251Z,31.88
2023-05-08T14:28:04.758Z,31.75
2023-05-08T14:29:38.010Z,31.87
2023-05-08T14:31:11.188Z,31.68
2023-05-08T14:32:44.502Z,31.93
2023-05-08T14:34:17.735Z,32.05
2023-05-08T14:35:51.151Z,32.23
2023-05-08T14:37:24.473Z,31.88
2023-05-08T14:38:57.829Z,32.33
2023-05-08T14:40:31.157Z,32.31
2023-05-08T14:43:40.593Z,32.27
2023-05-08T14:45:13.871Z,32.10
2023-05-08T14:46:47.752Z,32.27
2023-05-08T14:48:21.280Z,32.29
2023-05-08T14:49:54.575Z,32.30
2023-05-08T14:51:28.712Z,32.50
2023-05-08T14:53:02.341Z,32.66
2023-05-08T14:54:36.035Z,32.85
2023-05-08T14:56:09.661Z,32.80
2023-05-08T14:57:43.394Z,33.02
2023-05-08T14:59:16.564Z,32.98
2023-05-08T15:00:49.808Z,33.28
2023-05-08T15:02:24.420Z,33.31
2023-05-08T15:03:58.106Z,33.26
2023-05-08T15:05:31.947Z,33.51
2023-05-08T15:07:05.734Z,33.55
2023-05-08T15:08:39.033Z,33.94
2023-05-08T15:10:12.153Z,34.06
2023-05-08T15:11:45.308Z,34.20
2023-05-08T15:13:18.674Z,34.36
2023-05-08T15:14:52.038Z,34.31
2023-05-08T15:16:25.166Z,34.34
2023-05-08T15:17:58.553Z,34.65
2023-05-08T15:19:32.097Z,34.75
2023-05-08T15:21:05.568Z,34.77
2023-05-08T15:22:39.034Z,35.02
2023-05-08T15:24:12.376Z,34.67
2023-05-08T15:25:45.961Z,35.30
2023-05-08T15:27:19.110Z,35.11
2023-05-08T15:28:52.151Z,35.33
2023-05-08T15:30:25.908Z,35.21
2023-05-08T15:31:59.594Z,35.19
2023-05-08T15:33:32.803Z,35.32
2023-05-08T15:35:07.152Z,35.81
2023-05-08T15:36:40.337Z,35.61
2023-05-08T15:38:13.773Z,35.84
2023-05-08T15:39:46.988Z,35.87
2023-05-08T15:41:20.164Z,35.81
2023-05-08T15:42:53.558Z,36.04
2023-05-08T15:44:37.652Z,36.06
2023-05-08T15:46:20.310Z,36.28
2023-05-08T15:47:53.548Z,36.44
2023-05-08T15:49:27.508Z,36.59
2023-05-08T15:51:00.819Z,36.35
2023-05-08T15:52:33.903Z,36.59
2023-05-08T15:54:07.014Z,36.55
2023-05-08T15:55:40.334Z,36.64
2023-05-08T15:57:14.415Z,36.55
2023-05-08T15:58:47.691Z,36.51
2023-05-08T16:00:23.118Z,36.52
2023-05-08T16:01:58.535Z,36.82
2023-05-08T16:03:32.469Z,36.82
2023-05-08T16:05:05.964Z,36.91
2023-05-08T16:06:39.329Z,36.94
2023-05-08T16:08:13.257Z,37.08
2023-05-08T16:09:46.635Z,37.03
2023-05-08T16:11:19.889Z,37.23
2023-05-08T16:12:53.083Z,37.26
2023-05-08T16:14:26.705Z,37.21
2023-05-08T16:16:07.326Z,37.15
2023-05-08T16:17:40.500Z,37.22
2023-05-08T16:19:13.615Z,37.15
2023-05-08T16:20:46.881Z,37.03
2023-05-08T16:22:20.302Z,37.16
2023-05-08T16:23:53.708Z,37.03
2023-05-08T16:25:27.176Z,37.21
2023-05-08T16:27:00.725Z,37.09
2023-05-08T16:28:34.054Z,37.28
2023-05-08T16:30:08.026Z,37.09
2023-05-08T16:31:41.266Z,37.26
2023-05-08T16:33:14.727Z,37.31
2023-05-08T16:34:48.028Z,37.47
2023-05-08T16:36:21.025Z,37.68
2023-05-08T16:37:54.222Z,37.79
2023-05-08T16:39:27.789Z,37.84
2023-05-08T16:41:04.918Z,37.90
2023-05-08T16:42:38.216Z,38.00
2023-05-08T16:44:11.361Z,38.31
2023-05-08T16:45:44.481Z,38.13
2023-05-08T16:47:17.726Z,37.99
2023-05-08T16:48:50.952Z,38.25
2023-05-08T16:50:24.226Z,38.32
2023-05-08T16:51:57.355Z,38.27
2023-05-08T16:53:32.652Z,38.12
2023-05-08T16:55:06.333Z,38.14
2023-05-08T16:56:39.579Z,38.31
2023-05-08T16:58:13.417Z,38.24
2023-05-08T16:59:47.765Z,38.48
2023-05-08T17:01:20.993Z,38.21
2023-05-08T17:02:54.343Z,38.33
2023-05-08T17:04:29.691Z,38.50
2023-05-08T17:06:08.728Z,38.68
2023-05-08T17:07:41.861Z,38.63
2023-05-08T17:09:14.972Z,38.96
2023-05-08T17:10:47.917Z,38.89
2023-05-08T17:12:21.265Z,39.07
2023-05-08T17:13:54.601Z,39.24
2023-05-08T17:15:28.072Z,39.31
2023-05-08T17:17:01.682Z,39.53
2023-05-08T17:18:35.258Z,39.66
2023-05-08T17:20:12.215Z,39.91
2023-05-08T17:21:45.822Z,40.05
2023-05-08T17:23:22.033Z,39.77
2023-05-08T17:24:55.739Z,40.25
2023-05-08T17:26:33.876Z,40.23
2023-05-08T17:28:07.852Z,40.56
2023-05-08T17:29:45.236Z,40.78
2023-05-08T17:31:18.742Z,40.88
2023-05-08T17:32:52.109Z,41.28
2023-05-08T17:34:25.767Z,41.14
2023-05-08T17:36:02.919Z,41.41
2023-05-08T17:37:36.176Z,41.93
2023-05-08T17:39:09.237Z,41.68
2023-05-08T17:40:43.632Z,42.34
2023-05-08T17:42:16.808Z,42.06
2023-05-08T17:43:49.993Z,42.15
2023-05-08T17:45:22.866Z,42.50
2023-05-08T17:46:56.056Z,42.63
2023-05-08T17:48:29.574Z,42.38
2023-05-08T17:50:02.828Z,42.50
2023-05-08T17:51:36.854Z,42.88
2023-05-08T17:53:10.129Z,43.29
2023-05-08T17:54:43.450Z,43.36
2023-05-08T17:56:20.774Z,43.34
2023-05-08T17:57:53.900Z,43.33
2023-05-08T17:59:27.494Z,43.74
2023-05-08T18:01:00.963Z,43.88
2023-05-08T18:02:34.430Z,43.99
2023-05-08T18:04:07.969Z,44.31
2023-05-08T18:05:41.415Z,44.63
2023-05-08T18:07:14.803Z,44.70
2023-05-08T18:08:51.272Z,44.88
2023-05-08T18:10:24.468Z,45.10
2023-05-08T18:12:02.732Z,44.92
2023-05-08T18:13:36.014Z,45.38
2023-05-08T18:15:09.761Z,45.71
2023-05-08T18:16:43.045Z,45.66
2023-05-08T18:18:19.755Z,45.91
2023-05-08T18:19:53.043Z,46.02
2023-05-08T18:21:26.692Z,46.35
2023-05-08T18:22:59.787Z,46.66
2023-05-08T18:24:33.072Z,46.97
2023-05-08T18:26:06.585Z,46.85
2023-05-08T18:27:43.232Z,47.35
2023-05-08T18:29:16.477Z,47.29
2023-05-08T18:30:49.902Z,47.50
2023-05-08T18:32:25.731Z,47.99
2023-05-08T18:33:58.903Z,47.80
2023-05-08T18:35:32.089Z,47.90
2023-05-08T18:37:05.415Z,48.04
2023-05-08T18:38:38.962Z,48.12
2023-05-08T18:40:13.254Z,48.08
2023-05-08T18:41:47.230Z,48.42
2023-05-08T18:43:20.638Z,48.29
2023-05-08T18:44:56.255Z,48.96
2023-05-08T18:46:29.569Z,48.65
2023-05-08T18:48:02.709Z,48.87
2023-05-08T18:49:35.903Z,49.20
2023-05-08T18:51:09.184Z,49.36
2023-05-08T18:52:42.490Z,48.94
2023-05-08T18:54:15.577Z,49.55
2023-05-08T18:55:49.156Z,49.61
2023-05-08T18:57:22.127Z,49.38
2023-05-08T18:58:55.917Z,49.99
2023-05-08T19:00:29.469Z,49.57
2023-05-08T19:02:02.890Z,50.03
2023-05-08T19:03:36.294Z,50.00
2023-05-08T19:05:09.962Z,50.54
2023-05-08T19:06:44.367Z,50.36
2023-05-08T19:08:21.132Z,50.69
2023-05-08T19:09:57.307Z,50.77
2023-05-08T19:11:30.794Z,50.71
2023-05-08T19:13:04.099Z,51.62
2023-05-08T19:14:37.280Z,51.44
2023-05-08T19:16:10.382Z,51.52
2023-05-08T19:17:43.935Z,51.79
2023-05-08T19:19:17.194Z,51.91
2023-05-08T19:20:50.895Z,51.83
2023-05-08T19:22:24.273Z,52.50
2023-05-08T19:23:57.565Z,52.84
2023-05-08T19:25:30.610Z,52.75
2023-05-08T19:27:04.494Z,52.67
2023-05-08T19:28:38.014Z,52.70
2023-05-08T19:30:12.164Z,53.04
2023-05-08T19:31:45.916Z,52.93
2023-05-08T19:33:21.229Z,53.20
2023-05-08T19:34:57.694Z,53.37
2023-05-08T19:36:31.235Z,54.18
2023-05-08T19:38:04.719Z,53.88
2023-05-08T19:39:37.710Z,54.13
2023-05-08T19:41:14.196Z,54.18
2023-05-08T19:42:47.774Z,54.79
2023-05-08T19:44:21.220Z,54.98
2023-05-08T19:45:56.078Z,55.02
2023-05-08T19:47:32.967Z,55.70
2023-05-08T19:49:06.445Z,55.65
2023-05-08T19:50:39.795Z,55.99
2023-05-08T19:52:13.599Z,56.73
2023-05-08T19:53:46.769Z,57.33
2023-05-08T19:55:20.389Z,57.65
2023-05-08T19:56:53.586Z,58.13
2023-05-08T19:58:27.038Z,58.30
2023-05-08T20:00:00.427Z,58.90
2023-05-08T20:01:34.007Z,58.22
2023-05-08T20:03:07.061Z,58.26
2023-05-08T20:04:54.485Z,58.45
2023-05-08T20:06:33.644Z,58.55
2023-05-08T20:08:07.515Z,58.54
2023-05-08T20:09:41.428Z,59.06
2023-05-08T20:11:14.708Z,58.65
2023-05-08T20:12:48.234Z,59.19
2023-05-08T20:14:21.833Z,59.39
2023-05-08T20:15:54.994Z,59.55
2023-05-08T20:17:28.095Z,59.84
2023-05-08T20:19:01.978Z,60.50
2023-05-08T20:20:38.040Z,60.84
2023-05-08T20:22:11.449Z,61.38
2023-05-08T20:23:44.886Z,61.89
2023-05-08T20:25:17.973Z,62.49
2023-05-08T20:26:54.832Z,63.16
2023-05-08T20:28:28.256Z,62.90
2023-05-08T20:30:01.594Z,63.29
2023-05-08T20:31:36.877Z,63.83
2023-05-08T20:33:10.420Z,64.22
2023-05-08T20:34:44.799Z,64.71
2023-05-08T20:36:17.926Z,64.85